Time;durP1;ratioP1;P1;durP2;ratioP2;P2;SDS_P1;SDS_P2;PMS_P1;PMS_P2;Temp;Humidity;BMP_temperature;BMP_pressure;BME280_temperature;BME280_humidity;BME280_pressure;Samples;Min_cycle;Max_cycle;Signal;HPM_P1;HPM_P2
2022/01/12 00:01:05;;;;;;;0.15;0.15;;;2.00;99.90;;;;;;5083889;28;20024;-65
2022/01/12 00:03:33;;;;;;;0.10;0.10;;;1.90;99.90;;;;;;5084619;28;20032;-66
2022/01/12 00:05:58;;;;;;;0.10;0.10;;;1.90;99.90;;;;;;5085317;28;20031;-66
2022/01/12 00:08:25;;;;;;;0.10;0.10;;;2.00;99.90;;;;;;5086759;28;20039;-66
2022/01/12 00:10:51;;;;;;;0.63;0.63;;;2.00;99.90;;;;;;5084432;28;20081;-67
2022/01/12 00:13:17;;;;;;;0.10;0.10;;;1.90;99.90;;;;;;5070598;28;20016;-65
2022/01/12 00:15:42;;;;;;;0.10;0.10;;;2.00;99.90;;;;;;5080606;28;20074;-67
2022/01/12 00:18:08;;;;;;;0.10;0.10;;;1.90;99.90;;;;;;5084873;28;20107;-67
2022/01/12 00:20:33;;;;;;;0.10;0.10;;;2.00;99.90;;;;;;5082993;28;20032;-66
2022/01/12 00:22:59;;;;;;;0.10;0.10;;;1.90;99.90;;;;;;5081497;28;20629;-67
2022/01/12 00:25:29;;;;;;;0.10;0.10;;;1.90;99.90;;;;;;5081782;28;20728;-67
2022/01/12 00:33:24;;;;;;;0.10;0.10;;;1.80;99.90;;;;;;5094013;28;20035;-66
2022/01/12 00:35:55;;;;;;;0.10;0.10;;;1.70;99.90;;;;;;5089604;28;20020;-66
2022/01/12 00:38:23;;;;;;;0.10;0.10;;;1.70;99.90;;;;;;5101756;28;20023;-67
2022/01/12 00:40:50;;;;;;;0.20;0.20;;;1.70;99.90;;;;;;5088058;28;20017;-66
2022/01/12 00:43:17;;;;;;;0.10;0.10;;;1.70;99.90;;;;;;5089829;28;20396;-67
2022/01/12 00:45:45;;;;;;;0.10;0.10;;;1.70;99.90;;;;;;5090599;28;20111;-66
2022/01/12 00:48:12;;;;;;;0.10;0.10;;;1.60;99.90;;;;;;5084958;28;20027;-66
2022/01/12 00:50:38;;;;;;;0.10;0.10;;;1.60;99.90;;;;;;5101996;28;20035;-66
2022/01/12 00:53:05;;;;;;;0.10;0.10;;;1.50;99.90;;;;;;5073163;28;20754;-66
2022/01/12 00:55:31;;;;;;;0.10;0.10;;;1.50;99.90;;;;;;5087762;28;20024;-66
2022/01/12 00:57:58;;;;;;;0.10;0.10;;;1.50;99.90;;;;;;5093816;28;20035;-66
2022/01/12 01:00:25;;;;;;;0.20;0.20;;;1.60;99.90;;;;;;5090238;28;20023;-67
2022/01/12 01:02:51;;;;;;;0.10;0.10;;;1.60;99.90;;;;;;5089637;28;20012;-66
2022/01/12 01:05:20;;;;;;;0.10;0.10;;;1.50;99.90;;;;;;5087505;28;20478;-66
2022/01/12 01:07:47;;;;;;;0.10;0.10;;;1.40;99.90;;;;;;5085255;28;20028;-66
2022/01/12 01:10:18;;;;;;;0.10;0.10;;;1.40;99.90;;;;;;5089594;28;20384;-66
2022/01/12 01:12:45;;;;;;;0.10;0.10;;;1.40;99.90;;;;;;5071310;28;20024;-67
2022/01/12 01:15:15;;;;;;;0.10;0.10;;;1.30;99.90;;;;;;5087513;28;20042;-66
2022/01/12 01:25:48;;;;;;;0.13;0.13;;;1.10;99.90;;;;;;5069378;28;20112;-67
2022/01/12 01:28:15;;;;;;;0.20;0.20;;;1.10;99.90;;;;;;5087178;28;20106;-67
2022/01/12 01:30:43;;;;;;;0.20;0.20;;;1.10;99.90;;;;;;5089537;28;20038;-67
2022/01/12 01:33:10;;;;;;;0.10;0.10;;;1.20;99.90;;;;;;5084642;28;20025;-67
2022/01/12 01:35:39;;;;;;;0.10;0.10;;;1.10;99.90;;;;;;5051005;28;20103;-66
2022/01/12 01:38:07;;;;;;;1.17;1.17;;;1.10;99.90;;;;;;5069650;28;20027;-66
2022/01/12 01:40:35;;;;;;;0.10;0.10;;;1.10;99.90;;;;;;5069010;28;20501;-67
2022/01/12 01:53:47;;;;;;;0.10;0.10;;;1.00;99.90;;;;;;5081549;28;20055;-65
2022/01/12 01:56:12;;;;;;;0.10;0.10;;;0.90;99.90;;;;;;5088483;28;20414;-67
2022/01/12 01:58:39;;;;;;;0.10;0.10;;;0.90;99.90;;;;;;5088573;28;20024;-67
2022/01/12 02:01:05;;;;;;;0.40;0.40;;;0.90;99.90;;;;;;5091681;28;20099;-67
2022/01/12 02:03:31;;;;;;;0.10;0.10;;;0.90;99.90;;;;;;5099235;28;20036;-66
2022/01/12 02:05:59;;;;;;;0.55;0.55;;;0.90;99.90;;;;;;5093186;28;20106;-66
2022/01/12 02:08:25;;;;;;;1.13;1.08;;;0.80;99.90;;;;;;5088100;28;20023;-66
2022/01/12 02:10:55;;;;;;;0.10;0.10;;;0.90;99.90;;;;;;5107959;22;20817;-68
2022/01/12 02:13:21;;;;;;;0.10;0.10;;;0.90;99.90;;;;;;5089887;28;20033;-68
2022/01/12 02:15:48;;;;;;;0.20;0.20;;;0.90;99.90;;;;;;5085611;28;20102;-67
2022/01/12 02:40:21;;;;;;;0.10;0.10;;;1.00;99.90;;;;;;5092583;28;20206;-66
2022/01/12 02:42:56;;;;;;;0.20;0.20;;;1.00;99.90;;;;;;5092309;28;20099;-66
2022/01/12 02:51:11;;;;;;;0.10;0.10;;;1.00;99.90;;;;;;5084332;28;20123;-67
2022/01/12 02:53:43;;;;;;;0.10;0.10;;;0.90;99.90;;;;;;5082334;28;20494;-67
2022/01/12 02:56:19;;;;;;;0.35;0.35;;;0.90;99.90;;;;;;5092248;28;20024;-67
2022/01/12 02:58:46;;;;;;;0.10;0.10;;;0.90;99.90;;;;;;5075416;28;20857;-66
2022/01/12 03:03:43;;;;;;;0.10;0.10;;;0.90;99.90;;;;;;5074773;28;20043;-67
2022/01/12 03:06:10;;;;;;;0.47;0.47;;;0.80;99.90;;;;;;5092058;28;20120;-67
2022/01/12 03:08:37;;;;;;;0.10;0.10;;;0.70;99.90;;;;;;5092438;28;20020;-66
2022/01/12 03:11:08;;;;;;;0.15;0.15;;;0.70;99.90;;;;;;5087256;28;20029;-67
2022/01/12 03:13:35;;;;;;;0.10;0.10;;;0.60;99.90;;;;;;5090943;28;20020;-67
2022/01/12 03:16:02;;;;;;;0.10;0.10;;;0.50;99.90;;;;;;5091843;28;20060;-66
2022/01/12 03:18:28;;;;;;;0.10;0.10;;;0.40;99.90;;;;;;5084475;28;20077;-67
2022/01/12 03:20:54;;;;;;;0.10;0.10;;;0.50;99.90;;;;;;5091958;28;20023;-66
2022/01/12 03:23:20;;;;;;;0.10;0.10;;;0.50;99.90;;;;;;5082113;28;20042;-67
2022/01/12 03:25:46;;;;;;;0.10;0.10;;;0.60;99.90;;;;;;5091364;28;20107;-66
2022/01/12 03:28:12;;;;;;;0.10;0.10;;;0.60;99.90;;;;;;5091973;28;20501;-67
2022/01/12 03:30:48;;;;;;;0.10;0.10;;;0.70;99.90;;;;;;5091406;28;20035;-66
2022/01/12 03:33:32;;;;;;;0.25;0.25;;;0.60;99.90;;;;;;5071843;28;20102;-66
2022/01/12 03:38:42;;;;;;;0.10;0.10;;;0.50;99.90;;;;;;5083567;28;20101;-66
2022/01/12 03:41:07;;;;;;;0.10;0.10;;;0.50;99.90;;;;;;5086516;28;20466;-66
2022/01/12 03:43:33;;;;;;;0.10;0.10;;;0.50;99.90;;;;;;5076168;28;20028;-66
2022/01/12 03:45:59;;;;;;;0.10;0.10;;;0.50;99.90;;;;;;5091123;28;20444;-66
2022/01/12 03:48:25;;;;;;;0.20;0.20;;;0.50;99.90;;;;;;5082929;28;20038;-66
2022/01/12 03:50:51;;;;;;;0.10;0.10;;;0.50;99.90;;;;;;5086628;28;20032;-66
2022/01/12 03:53:16;;;;;;;0.10;0.10;;;0.50;99.90;;;;;;5091190;28;20031;-66
2022/01/12 03:55:43;;;;;;;0.10;0.10;;;0.40;99.90;;;;;;5091485;28;20024;-67
2022/01/12 03:58:11;;;;;;;0.10;0.10;;;0.40;99.90;;;;;;5091376;28;20027;-67
2022/01/12 04:00:37;;;;;;;0.10;0.10;;;0.40;99.90;;;;;;5086998;28;20586;-67
2022/01/12 04:03:05;;;;;;;0.10;0.10;;;0.50;99.90;;;;;;5090881;28;20119;-67
2022/01/12 04:08:20;;;;;;;0.10;0.10;;;0.40;99.90;;;;;;5091372;28;20032;-67
2022/01/12 04:10:54;;;;;;;0.10;0.10;;;0.40;99.90;;;;;;5070825;28;20028;-68
2022/01/12 04:13:22;;;;;;;0.73;0.73;;;0.50;99.90;;;;;;5072839;28;20094;-67
2022/01/12 04:15:52;;;;;;;0.10;0.10;;;0.40;99.90;;;;;;5089200;28;20401;-67
2022/01/12 04:18:18;;;;;;;0.20;0.20;;;0.40;99.90;;;;;;5078499;28;20119;-67
2022/01/12 04:20:49;;;;;;;0.10;0.10;;;0.30;99.90;;;;;;5089440;28;20169;-67
2022/01/12 04:23:17;;;;;;;0.10;0.10;;;0.30;99.90;;;;;;5089071;28;20020;-68
2022/01/12 04:25:44;;;;;;;0.10;0.10;;;0.30;99.90;;;;;;5083825;28;20032;-66
2022/01/12 04:28:10;;;;;;;0.10;0.10;;;0.30;99.90;;;;;;5052947;28;20382;-66
2022/01/12 04:30:36;;;;;;;0.10;0.10;;;0.30;99.90;;;;;;5085194;28;20054;-67
2022/01/12 04:33:02;;;;;;;0.10;0.10;;;0.30;99.90;;;;;;5090886;28;20418;-66
2022/01/12 04:35:33;;;;;;;0.30;0.30;;;0.40;99.90;;;;;;5090312;28;20513;-67
2022/01/12 04:37:59;;;;;;;0.10;0.10;;;0.40;99.90;;;;;;5090136;28;20099;-66
2022/01/12 04:40:25;;;;;;;0.10;0.10;;;0.40;99.90;;;;;;5090409;28;20095;-66
2022/01/12 04:42:53;;;;;;;0.10;0.10;;;0.40;99.90;;;;;;5075006;28;20021;-66
2022/01/12 04:45:37;;;;;;;0.10;0.10;;;0.40;99.90;;;;;;5080426;28;20069;-66
2022/01/12 04:50:42;;;;;;;0.10;0.10;;;0.40;99.90;;;;;;5090223;28;20016;-66
2022/01/12 04:53:08;;;;;;;0.60;0.60;;;0.40;99.90;;;;;;5090589;28;20507;-67
2022/01/12 04:55:34;;;;;;;0.10;0.10;;;0.40;99.90;;;;;;5089992;28;20036;-67
2022/01/12 04:58:00;;;;;;;0.15;0.15;;;0.30;99.90;;;;;;5090600;28;20098;-67
2022/01/12 05:00:28;;;;;;;1.20;1.20;;;0.30;99.90;;;;;;5090556;28;20020;-67
2022/01/12 05:13:35;;;;;;;0.10;0.10;;;0.20;99.90;;;;;;5089969;28;20059;-66
2022/01/12 05:16:01;;;;;;;0.10;0.10;;;0.20;99.90;;;;;;5089523;28;20057;-67
2022/01/12 05:18:32;;;;;;;0.10;0.10;;;0.20;99.90;;;;;;5089936;28;20098;-67
2022/01/12 05:20:58;;;;;;;0.10;0.10;;;0.20;99.90;;;;;;5071484;28;20040;-67
2022/01/12 05:23:24;;;;;;;0.08;0.08;;;0.20;99.90;;;;;;5067866;28;20088;-67
2022/01/12 05:25:52;;;;;;;0.10;0.10;;;0.20;99.90;;;;;;5074468;28;20548;-67
2022/01/12 05:28:21;;;;;;;0.00;0.00;;;0.20;99.90;;;;;;5090014;28;20024;-68
2022/01/12 05:30:47;;;;;;;1.17;1.17;;;0.20;99.90;;;;;;5082181;28;20025;-68
2022/01/12 05:33:14;;;;;;;0.10;0.10;;;0.20;99.90;;;;;;5069499;28;20111;-67
2022/01/12 05:35:41;;;;;;;0.10;0.10;;;0.10;99.90;;;;;;5087306;28;20099;-67
2022/01/12 05:38:08;;;;;;;0.05;0.05;;;0.10;99.90;;;;;;5088916;28;20025;-67
2022/01/12 05:40:35;;;;;;;0.40;0.25;;;0.10;99.90;;;;;;5081181;28;20016;-68
2022/01/12 05:43:02;;;;;;;0.52;0.52;;;0.00;99.90;;;;;;5089786;28;20024;-66
2022/01/12 05:45:30;;;;;;;0.10;0.10;;;-0.10;99.90;;;;;;5089370;28;20024;-66
2022/01/12 05:50:23;;;;;;;2.20;1.58;;;0.00;99.90;;;;;;5089665;28;20032;-66
2022/01/12 05:52:49;;;;;;;0.10;0.10;;;0.00;99.90;;;;;;5089801;28;20030;-66
2022/01/12 05:55:15;;;;;;;0.13;0.13;;;0.10;99.90;;;;;;5085914;28;20016;-66
2022/01/12 05:57:42;;;;;;;0.10;0.10;;;0.10;99.90;;;;;;5069422;28;20029;-67
2022/01/12 06:00:10;;;;;;;0.10;0.10;;;0.00;99.90;;;;;;5084205;28;20036;-67
2022/01/12 06:02:36;;;;;;;0.10;0.10;;;-0.40;99.90;;;;;;5088844;28;20035;-67
2022/01/12 06:05:03;;;;;;;0.10;0.10;;;0.10;99.90;;;;;;5088316;28;20032;-67
2022/01/12 06:07:29;;;;;;;4.38;1.65;;;0.10;99.90;;;;;;5089377;28;20473;-67
2022/01/12 06:09:55;;;;;;;0.10;0.10;;;0.20;99.90;;;;;;5089123;28;20028;-67
2022/01/12 06:12:20;;;;;;;1.05;1.05;;;0.20;99.90;;;;;;5088772;28;20031;-67
2022/01/12 06:14:46;;;;;;;0.10;0.10;;;0.20;99.90;;;;;;5089383;28;20020;-67
2022/01/12 06:17:12;;;;;;;0.10;0.10;;;0.30;99.90;;;;;;5089612;28;20485;-67
2022/01/12 06:19:39;;;;;;;0.10;0.10;;;0.10;99.90;;;;;;5088887;28;20039;-67
2022/01/12 06:22:06;;;;;;;0.10;0.10;;;0.10;99.90;;;;;;5089025;28;20038;-67
2022/01/12 06:24:31;;;;;;;0.10;0.10;;;0.10;99.90;;;;;;5088951;28;20024;-67
2022/01/12 06:26:58;;;;;;;1.08;0.88;;;0.00;99.90;;;;;;5089418;28;20077;-67
2022/01/12 06:32:08;;;;;;;0.00;0.00;;;0.00;99.90;;;;;;5085752;28;20120;-66
2022/01/12 06:34:34;;;;;;;0.32;0.32;;;-0.10;99.90;;;;;;5072798;28;20060;-67
2022/01/12 06:37:00;;;;;;;0.10;0.10;;;-0.10;99.90;;;;;;5069208;28;20028;-67
2022/01/12 06:39:26;;;;;;;0.10;0.10;;;-0.10;99.90;;;;;;5085452;28;20047;-67
2022/01/12 06:41:55;;;;;;;0.10;0.10;;;-0.10;99.90;;;;;;5088942;28;20107;-67
2022/01/12 06:44:21;;;;;;;0.10;0.10;;;-0.10;99.90;;;;;;5069587;28;20090;-68
2022/01/12 06:46:52;;;;;;;0.10;0.10;;;-0.10;99.90;;;;;;5068614;28;20099;-67
2022/01/12 06:49:18;;;;;;;0.10;0.10;;;-0.20;99.90;;;;;;5089793;28;20028;-68
2022/01/12 06:51:45;;;;;;;0.10;0.10;;;-0.20;99.90;;;;;;5091134;28;20044;-66
2022/01/12 06:54:12;;;;;;;0.10;0.10;;;-0.10;99.90;;;;;;5092727;28;20066;-67
2022/01/12 06:56:38;;;;;;;0.45;0.45;;;-0.10;99.90;;;;;;5086537;28;20754;-67
2022/01/12 06:59:05;;;;;;;0.10;0.10;;;-0.10;99.90;;;;;;5078278;28;20028;-68
2022/01/12 07:01:30;;;;;;;0.10;0.10;;;-0.10;99.90;;;;;;5092106;28;20486;-69
2022/01/12 07:03:56;;;;;;;0.13;0.13;;;-0.20;99.90;;;;;;5091977;28;20321;-67
2022/01/12 07:06:25;;;;;;;0.10;0.10;;;-0.20;99.90;;;;;;5090399;28;20055;-68
2022/01/12 07:08:51;;;;;;;1.95;1.85;;;-0.20;99.90;;;;;;5060191;28;20454;-67
2022/01/12 07:11:17;;;;;;;0.10;0.10;;;-0.20;99.90;;;;;;5066438;28;20028;-68
2022/01/12 07:13:43;;;;;;;0.10;0.10;;;-0.20;99.90;;;;;;5091698;28;20031;-68
2022/01/12 07:16:08;;;;;;;0.10;0.10;;;-0.20;99.90;;;;;;5090832;28;20044;-68
2022/01/12 07:18:34;;;;;;;0.10;0.10;;;-0.20;99.90;;;;;;5092300;28;20084;-68
2022/01/12 07:21:00;;;;;;;0.85;0.85;;;-0.10;99.90;;;;;;5090858;28;20040;-69
2022/01/12 07:23:27;;;;;;;0.08;0.08;;;-0.10;99.90;;;;;;5091560;28;20024;-66
2022/01/12 07:25:52;;;;;;;0.13;0.13;;;0.00;99.90;;;;;;5090483;28;20028;-69
2022/01/12 07:28:19;;;;;;;0.10;0.10;;;0.00;99.90;;;;;;5092110;28;20031;-70
2022/01/12 07:30:45;;;;;;;0.10;0.10;;;0.00;99.90;;;;;;5089059;28;20032;-69
2022/01/12 07:33:11;;;;;;;0.20;0.20;;;0.00;99.90;;;;;;5089613;28;20478;-69
2022/01/12 07:35:38;;;;;;;0.10;0.10;;;0.00;99.90;;;;;;5090020;28;20024;-69
2022/01/12 07:38:04;;;;;;;0.13;0.13;;;-0.10;99.90;;;;;;5089560;28;20020;-69
2022/01/12 07:40:29;;;;;;;0.10;0.10;;;0.10;99.90;;;;;;5086404;28;20074;-68
2022/01/12 07:42:55;;;;;;;0.10;0.10;;;0.10;99.90;;;;;;5086077;28;20380;-69
2022/01/12 07:45:21;;;;;;;1.00;1.00;;;0.10;99.90;;;;;;5088233;28;20035;-68
2022/01/12 07:47:47;;;;;;;0.10;0.10;;;0.00;99.90;;;;;;5090770;28;20028;-68
2022/01/12 07:50:14;;;;;;;0.30;0.30;;;0.10;99.90;;;;;;5087392;28;20199;-69
2022/01/12 07:52:39;;;;;;;0.00;0.00;;;0.00;99.90;;;;;;5084253;28;20028;-69
2022/01/12 07:55:07;;;;;;;0.10;0.10;;;0.10;99.90;;;;;;5086606;28;20084;-69
2022/01/12 07:57:32;;;;;;;0.10;0.10;;;0.10;99.90;;;;;;5083195;28;20410;-68
2022/01/12 07:59:58;;;;;;;0.10;0.10;;;0.10;99.90;;;;;;5072241;28;20017;-69
2022/01/12 08:02:24;;;;;;;1.30;1.20;;;0.20;99.90;;;;;;5070724;28;20545;-67
2022/01/12 08:04:50;;;;;;;0.10;0.10;;;0.20;99.90;;;;;;5082127;28;20025;-68
2022/01/12 08:07:16;;;;;;;1.10;1.10;;;0.30;99.90;;;;;;5078764;28;20127;-69
2022/01/12 08:09:43;;;;;;;0.20;0.20;;;0.40;99.90;;;;;;5083888;28;20028;-71
2022/01/12 08:12:09;;;;;;;0.20;0.20;;;0.50;99.90;;;;;;5116683;22;20504;-69
2022/01/12 08:14:35;;;;;;;0.10;0.10;;;0.60;99.90;;;;;;5125794;27;20080;-70
2022/01/12 08:17:01;;;;;;;0.20;0.20;;;0.60;99.90;;;;;;5122962;27;20443;-68
2022/01/12 08:19:28;;;;;;;0.10;0.10;;;0.60;99.90;;;;;;5120985;27;20111;-70
2022/01/12 08:21:54;;;;;;;0.10;0.10;;;0.50;99.90;;;;;;5126898;27;20027;-69
2022/01/12 08:24:20;;;;;;;0.10;0.10;;;0.50;99.90;;;;;;5125337;27;20035;-68
2022/01/12 08:26:46;;;;;;;0.03;0.03;;;0.60;99.90;;;;;;5127819;27;20038;-69
2022/01/12 08:29:16;;;;;;;0.10;0.10;;;0.60;99.90;;;;;;5123451;27;20545;-69
2022/01/12 08:31:43;;;;;;;0.40;0.40;;;0.70;99.90;;;;;;5120267;27;20073;-69
2022/01/12 08:34:10;;;;;;;0.10;0.10;;;0.70;99.90;;;;;;5119741;27;20589;-70
2022/01/12 08:36:40;;;;;;;0.10;0.10;;;0.80;99.90;;;;;;5120375;27;20051;-70
2022/01/12 08:39:08;;;;;;;0.10;0.10;;;0.80;99.90;;;;;;5121432;27;20521;-69
2022/01/12 08:41:37;;;;;;;0.05;0.05;;;0.90;99.90;;;;;;5122901;27;20115;-70
2022/01/12 08:44:05;;;;;;;0.10;0.10;;;0.90;99.90;;;;;;5122571;27;20024;-69
2022/01/12 08:46:30;;;;;;;0.10;0.10;;;0.90;99.90;;;;;;5122487;27;20373;-69
2022/01/12 08:48:56;;;;;;;0.20;0.20;;;0.90;99.90;;;;;;5120236;27;20019;-68
2022/01/12 08:51:22;;;;;;;0.30;0.30;;;0.80;99.90;;;;;;5128729;27;20419;-68
2022/01/12 08:53:48;;;;;;;0.43;0.43;;;0.70;99.90;;;;;;5120344;27;20039;-68
2022/01/12 08:56:14;;;;;;;0.40;0.40;;;0.80;99.90;;;;;;5120143;27;20051;-67
2022/01/12 08:58:40;;;;;;;0.10;0.10;;;0.80;99.90;;;;;;5123103;27;20516;-69
2022/01/12 09:01:06;;;;;;;0.10;0.10;;;0.90;99.90;;;;;;5120064;27;20033;-69
2022/01/12 09:03:32;;;;;;;0.10;0.10;;;1.00;99.90;;;;;;5124955;27;20023;-72
2022/01/12 09:05:58;;;;;;;0.10;0.10;;;1.00;99.90;;;;;;5127811;27;20357;-70
2022/01/12 09:08:23;;;;;;;0.10;0.10;;;1.00;99.90;;;;;;5117126;27;20046;-69
2022/01/12 09:10:49;;;;;;;0.13;0.13;;;1.10;99.90;;;;;;5128802;27;20516;-69
2022/01/12 09:13:15;;;;;;;0.10;0.10;;;1.10;99.90;;;;;;5126687;27;20027;-70
2022/01/12 09:15:40;;;;;;;8.30;2.55;;;1.10;99.90;;;;;;5119854;27;20130;-70
2022/01/12 09:18:06;;;;;;;0.10;0.10;;;1.10;99.90;;;;;;5120506;27;20034;-69
2022/01/12 09:20:32;;;;;;;0.10;0.10;;;1.10;99.90;;;;;;5123646;27;20031;-71
2022/01/12 09:22:58;;;;;;;0.35;0.35;;;1.20;99.90;;;;;;5119042;27;20023;-69
2022/01/12 09:25:24;;;;;;;0.10;0.10;;;1.20;99.90;;;;;;5119591;27;20115;-70
2022/01/12 09:27:50;;;;;;;0.75;0.75;;;1.30;99.90;;;;;;5118440;27;20099;-68
2022/01/12 09:30:18;;;;;;;0.10;0.10;;;1.30;99.90;;;;;;5123207;27;20061;-69
2022/01/12 09:32:45;;;;;;;3.20;3.00;;;1.40;99.90;;;;;;5123036;27;20027;-71
2022/01/12 09:35:12;;;;;;;0.10;0.10;;;1.70;99.90;;;;;;5128948;27;20111;-67
2022/01/12 09:37:38;;;;;;;0.10;0.10;;;2.00;99.90;;;;;;5124602;27;20392;-67
2022/01/12 09:40:05;;;;;;;1.65;1.52;;;1.90;99.90;;;;;;5123163;28;20030;-68
2022/01/12 09:42:32;;;;;;;0.10;0.10;;;2.10;99.90;;;;;;5120972;27;20023;-70
2022/01/12 09:44:58;;;;;;;0.10;0.10;;;2.10;99.90;;;;;;5118744;27;20547;-70
2022/01/12 09:47:24;;;;;;;0.20;0.20;;;2.10;99.90;;;;;;5121480;28;20076;-67
2022/01/12 09:49:49;;;;;;;1.27;1.27;;;2.00;99.90;;;;;;5123786;27;20477;-72
2022/01/12 09:52:15;;;;;;;0.10;0.10;;;1.80;99.90;;;;;;5127318;28;20034;-70
2022/01/12 09:54:41;;;;;;;0.10;0.10;;;1.80;99.90;;;;;;5120453;28;20114;-65
2022/01/12 09:57:07;;;;;;;0.10;0.10;;;1.90;99.90;;;;;;5119950;28;20088;-67
2022/01/12 09:59:33;;;;;;;0.10;0.10;;;2.00;99.90;;;;;;5126125;27;20045;-67
2022/01/12 10:01:59;;;;;;;0.20;0.20;;;2.00;99.90;;;;;;5123383;28;20437;-67
2022/01/12 10:04:30;;;;;;;0.10;0.10;;;1.90;99.90;;;;;;5118885;27;20484;-66
2022/01/12 10:07:04;;;;;;;0.10;0.10;;;1.90;99.90;;;;;;5096447;28;20283;-67
2022/01/12 10:09:36;;;;;;;0.10;0.10;;;1.90;99.90;;;;;;5120219;28;20019;-68
2022/01/12 10:12:05;;;;;;;9.43;3.30;;;1.90;99.90;;;;;;5122075;28;20038;-68
2022/01/12 10:14:59;;;;;;;0.10;0.10;;;1.80;99.90;;;;;;5120606;28;20030;-67
2022/01/12 10:17:40;;;;;;;0.10;0.10;;;1.90;99.90;;;;;;5121817;28;20028;-67
2022/01/12 10:20:07;;;;;;;0.10;0.10;;;2.00;99.90;;;;;;5118551;28;20020;-67
2022/01/12 10:22:32;;;;;;;0.10;0.10;;;2.10;99.90;;;;;;5115337;27;20453;-66
2022/01/12 10:25:00;;;;;;;0.10;0.10;;;2.00;99.90;;;;;;5126056;27;20023;-67
2022/01/12 10:27:26;;;;;;;0.10;0.10;;;2.10;99.90;;;;;;5121544;27;20140;-67
2022/01/12 10:29:57;;;;;;;0.10;0.10;;;2.20;99.90;;;;;;5124320;27;20361;-68
2022/01/12 10:32:22;;;;;;;0.40;0.40;;;2.10;99.90;;;;;;5128493;27;20027;-68
2022/01/12 10:34:49;;;;;;;0.20;0.20;;;1.90;99.90;;;;;;5126291;27;20515;-67
2022/01/12 10:37:18;;;;;;;0.10;0.10;;;2.00;99.90;;;;;;5124167;27;20027;-66
2022/01/12 10:39:48;;;;;;;0.57;0.55;;;2.00;99.90;;;;;;5119274;27;20023;-66
2022/01/12 10:42:18;;;;;;;0.10;0.10;;;1.90;99.90;;;;;;5123593;27;20080;-67
2022/01/12 10:44:48;;;;;;;0.10;0.10;;;2.00;99.90;;;;;;5123504;27;20030;-67
2022/01/12 10:47:23;;;;;;;0.10;0.10;;;2.00;99.90;;;;;;5126632;27;20038;-67
2022/01/12 10:49:54;;;;;;;0.10;0.10;;;2.10;99.90;;;;;;5120395;27;20148;-68
2022/01/12 10:52:22;;;;;;;0.40;0.40;;;2.00;99.90;;;;;;5123539;27;20037;-66
2022/01/12 10:54:58;;;;;;;0.75;0.75;;;2.10;99.90;;;;;;5126448;27;20027;-68
2022/01/12 10:57:42;;;;;;;0.10;0.10;;;2.10;99.90;;;;;;5124391;27;20026;-68
2022/01/12 11:00:18;;;;;;;2.00;1.75;;;2.30;99.90;;;;;;5118689;27;20098;-67
2022/01/12 11:02:52;;;;;;;0.20;0.20;;;2.40;99.90;;;;;;5129571;27;20027;-76
2022/01/12 11:05:20;;;;;;;0.10;0.10;;;2.30;99.90;;;;;;5127423;27;20027;-67
2022/01/12 11:07:46;;;;;;;0.10;0.10;;;2.20;99.90;;;;;;5122089;27;20484;-68
2022/01/12 11:10:12;;;;;;;0.10;0.10;;;2.20;99.90;;;;;;5128548;27;20195;-68
2022/01/12 11:12:40;;;;;;;0.10;0.10;;;2.20;99.90;;;;;;5124392;27;20035;-68
2022/01/12 11:15:17;;;;;;;0.10;0.10;;;2.40;99.90;;;;;;5123728;27;20106;-74
2022/01/12 11:17:45;;;;;;;0.10;0.10;;;2.50;99.90;;;;;;5127523;27;20134;-68
2022/01/12 11:20:25;;;;;;;0.10;0.10;;;2.50;99.90;;;;;;5122964;27;20016;-67
2022/01/12 11:23:11;;;;;;;0.30;0.30;;;2.60;99.90;;;;;;5124553;27;20032;-68
2022/01/12 11:25:39;;;;;;;0.10;0.10;;;2.70;99.90;;;;;;5124356;27;20052;-71
2022/01/12 11:28:24;;;;;;;0.05;0.05;;;2.60;99.90;;;;;;5129699;27;20039;-71
2022/01/12 11:30:54;;;;;;;0.10;0.10;;;2.60;99.90;;;;;;5118350;27;20385;-67
2022/01/12 11:33:40;;;;;;;0.55;0.55;;;2.70;99.90;;;;;;5131613;27;20023;-67
2022/01/12 11:36:34;;;;;;;0.20;0.20;;;2.80;99.90;;;;;;5119957;27;20022;-67
2022/01/12 11:39:08;;;;;;;0.17;0.17;;;2.90;99.90;;;;;;5119060;27;20019;-68
2022/01/12 11:41:39;;;;;;;0.10;0.10;;;2.80;99.90;;;;;;5127277;27;20043;-69
2022/01/12 11:44:16;;;;;;;0.10;0.10;;;2.70;99.90;;;;;;5113393;27;20114;-69
2022/01/12 11:46:53;;;;;;;0.10;0.10;;;2.70;99.90;;;;;;5125269;27;20035;-68
2022/01/12 11:49:29;;;;;;;0.47;0.47;;;2.60;99.90;;;;;;5122400;27;20019;-67
2022/01/12 11:51:56;;;;;;;0.35;0.35;;;2.70;99.90;;;;;;5121542;27;20031;-67
2022/01/12 11:54:32;;;;;;;0.10;0.10;;;2.80;99.90;;;;;;5122145;27;20027;-67
2022/01/12 11:57:03;;;;;;;0.10;0.10;;;2.80;99.90;;;;;;5118196;27;20027;-68
2022/01/12 11:59:47;;;;;;;2.40;2.20;;;2.90;99.90;;;;;;5125907;27;20042;-67
2022/01/12 12:02:17;;;;;;;0.10;0.10;;;3.00;99.90;;;;;;5119083;27;20030;-67
2022/01/12 12:04:57;;;;;;;0.10;0.10;;;2.90;99.90;;;;;;5120980;27;20032;-68
2022/01/12 12:07:24;;;;;;;0.63;0.63;;;2.90;99.90;;;;;;5119817;27;20147;-68
2022/01/12 12:09:53;;;;;;;3.40;1.90;;;3.00;99.90;;;;;;5122266;27;20388;-67
2022/01/12 12:12:29;;;;;;;0.10;0.10;;;3.10;99.90;;;;;;5123893;27;20038;-67
2022/01/12 12:14:59;;;;;;;2.58;2.38;;;3.00;99.90;;;;;;5122089;27;20035;-68
2022/01/12 12:17:29;;;;;;;2.15;1.95;;;3.10;99.90;;;;;;5123602;27;20027;-68
2022/01/12 12:19:55;;;;;;;0.10;0.10;;;3.00;99.90;;;;;;5114274;27;20055;-67
2022/01/12 12:22:25;;;;;;;0.10;0.10;;;3.00;99.90;;;;;;5116530;27;20035;-66
2022/01/12 12:24:59;;;;;;;0.13;0.13;;;3.00;99.90;;;;;;5121735;27;20111;-66
2022/01/12 12:27:26;;;;;;;0.10;0.10;;;3.10;99.90;;;;;;5120872;27;20031;-68
2022/01/12 12:29:53;;;;;;;1.05;1.05;;;3.20;99.90;;;;;;5125096;27;20031;-67
2022/01/12 12:32:32;;;;;;;0.10;0.10;;;3.00;99.90;;;;;;5124492;27;20034;-67
2022/01/12 12:35:03;;;;;;;0.10;0.10;;;3.00;99.90;;;;;;5120263;27;20084;-67
2022/01/12 12:37:41;;;;;;;0.10;0.10;;;3.00;99.90;;;;;;5121397;27;20099;-67
2022/01/12 12:40:37;;;;;;;0.10;0.10;;;3.00;99.90;;;;;;5112081;27;20012;-66
2022/01/12 12:43:07;;;;;;;0.52;0.52;;;3.00;99.90;;;;;;5102745;27;20563;-68
2022/01/12 12:45:48;;;;;;;0.10;0.10;;;2.90;99.90;;;;;;5123072;27;20036;-69
2022/01/12 12:48:19;;;;;;;0.10;0.10;;;2.90;99.90;;;;;;5127136;27;20024;-68
2022/01/12 12:50:45;;;;;;;0.10;0.10;;;3.00;99.90;;;;;;5118141;27;20133;-68
2022/01/12 12:53:12;;;;;;;0.63;0.63;;;3.00;99.90;;;;;;5120508;27;20015;-68
2022/01/12 12:55:40;;;;;;;0.10;0.10;;;3.10;99.90;;;;;;5123911;27;20046;-68
2022/01/12 12:58:07;;;;;;;0.10;0.10;;;3.20;99.90;;;;;;5123949;27;20030;-67
2022/01/12 13:00:35;;;;;;;0.10;0.10;;;3.20;99.90;;;;;;5120828;27;20023;-67
2022/01/12 13:03:02;;;;;;;0.10;0.10;;;3.30;99.90;;;;;;5122519;27;20034;-67
2022/01/12 13:05:33;;;;;;;0.38;0.38;;;3.20;99.90;;;;;;5119494;27;20031;-68
2022/01/12 13:07:59;;;;;;;0.10;0.10;;;3.20;99.90;;;;;;5123924;27;20473;-68
2022/01/12 13:10:30;;;;;;;0.10;0.10;;;3.10;99.90;;;;;;5123840;27;20039;-67
2022/01/12 13:12:59;;;;;;;0.10;0.10;;;3.00;99.90;;;;;;5122659;27;20096;-67
2022/01/12 13:15:29;;;;;;;0.10;0.10;;;3.00;99.90;;;;;;5121781;27;20198;-69
2022/01/12 13:18:18;;;;;;;0.10;0.10;;;3.10;99.90;;;;;;5123747;27;20514;-68
2022/01/12 13:23:36;;;;;;;0.10;0.10;;;3.30;99.90;;;;;;5121847;27;20027;-67
2022/01/12 13:26:04;;;;;;;0.10;0.10;;;3.30;99.90;;;;;;5120692;27;20024;-67
2022/01/12 13:28:30;;;;;;;0.10;0.10;;;3.20;99.90;;;;;;5120630;27;20716;-67
2022/01/12 13:30:58;;;;;;;0.30;0.30;;;3.20;99.90;;;;;;5123244;27;20019;-68
2022/01/12 13:33:29;;;;;;;0.10;0.10;;;3.60;99.90;;;;;;5124326;27;20031;-67
2022/01/12 13:35:55;;;;;;;0.10;0.10;;;5.00;99.90;;;;;;5117037;27;20032;-67
2022/01/12 13:38:27;;;;;;;0.15;0.15;;;6.20;99.90;;;;;;5123180;27;20484;-67
2022/01/12 13:40:55;;;;;;;0.10;0.10;;;6.70;99.90;;;;;;5121116;27;20034;-67
2022/01/12 13:43:24;;;;;;;1.05;1.00;;;7.70;99.90;;;;;;5117605;27;20519;-67
2022/01/12 13:45:59;;;;;;;0.10;0.10;;;7.70;98.00;;;;;;5119083;27;20050;-68
2022/01/12 13:48:30;;;;;;;0.00;0.00;;;7.80;97.30;;;;;;5119274;28;20066;-67
2022/01/12 13:50:57;;;;;;;0.10;0.10;;;8.10;95.30;;;;;;5121803;28;20031;-69
2022/01/12 13:53:39;;;;;;;0.10;0.10;;;8.40;93.70;;;;;;5119931;28;20023;-68
2022/01/12 13:56:06;;;;;;;0.00;0.00;;;8.50;92.60;;;;;;5120899;28;20031;-68
2022/01/12 13:58:33;;;;;;;0.10;0.10;;;8.60;90.50;;;;;;5121200;27;20367;-67
2022/01/12 14:01:11;;;;;;;0.10;0.10;;;8.80;90.60;;;;;;5129369;27;20039;-67
2022/01/12 14:03:53;;;;;;;0.00;0.00;;;8.60;89.30;;;;;;5128494;27;20023;-68
2022/01/12 14:06:24;;;;;;;0.00;0.00;;;8.80;87.90;;;;;;5123523;27;20023;-69
2022/01/12 14:08:57;;;;;;;0.03;0.03;;;8.70;90.00;;;;;;5125599;27;20032;-67
2022/01/12 14:11:37;;;;;;;0.00;0.00;;;9.30;85.20;;;;;;5127060;27;20027;-68
2022/01/12 14:14:04;;;;;;;0.10;0.10;;;9.80;81.80;;;;;;5124171;27;20102;-66
2022/01/12 14:16:31;;;;;;;0.00;0.00;;;9.40;81.50;;;;;;5088322;22;20051;-69
2022/01/12 14:18:58;;;;;;;0.00;0.00;;;9.10;80.90;;;;;;5071026;28;20035;-68
2022/01/12 14:21:24;;;;;;;0.17;0.17;;;8.70;84.10;;;;;;5064038;28;20020;-69
2022/01/12 14:23:49;;;;;;;0.00;0.00;;;8.40;85.40;;;;;;5070906;28;20500;-68